Time;durP1;ratioP1;P1;durP2;ratioP2;P2;SDS_P1;SDS_P2;PMS_P1;PMS_P2;Temp;Humidity;BMP_temperature;BMP_pressure;BME280_temperature;BME280_humidity;BME280_pressure;Samples;Min_cycle;Max_cycle;Signal;HPM_P1;HPM_P2
2023/09/20 00:00:36;;;;;;;7.75;5.05;;;;;;;22.78;51.24;99830.38;4859769;29;20423;-40
2023/09/20 00:03:02;;;;;;;7.15;5.28;;;;;;;22.76;50.82;99819.78;4859966;29;20048;-39
2023/09/20 00:05:27;;;;;;;8.48;4.88;;;;;;;22.84;50.56;99824.59;4841938;29;20030;-39
2023/09/20 00:07:56;;;;;;;7.38;5.05;;;;;;;22.87;50.86;99823.25;4841381;29;20032;-42
2023/09/20 00:10:25;;;;;;;7.80;4.83;;;;;;;22.86;50.82;99816.19;4839834;29;20098;-40
2023/09/20 00:12:50;;;;;;;8.30;4.93;;;;;;;22.65;51.19;99801.97;4841400;29;20037;-39
2023/09/20 00:15:16;;;;;;;6.07;4.78;;;;;;;22.81;51.38;99789.13;4841136;29;20049;-40
2023/09/20 00:17:42;;;;;;;9.77;5.18;;;;;;;22.84;50.93;99772.25;4840938;29;20030;-41
2023/09/20 00:20:12;;;;;;;7.68;4.82;;;;;;;22.69;51.63;99761.53;4841344;29;20127;-39
2023/09/20 00:22:41;;;;;;;;;;;;;;;22.68;51.23;99759.94;4841439;29;20684;-41
2023/09/20 00:25:09;;;;;;;9.13;4.90;;;;;;;22.38;52.11;99767.19;4840844;29;20006;-41
2023/09/20 00:27:35;;;;;;;8.80;4.90;;;;;;;22.34;52.11;99752.56;4840806;29;20034;-40
2023/09/20 00:30:03;;;;;;;8.80;4.93;;;;;;;22.36;51.54;99751.19;4840788;29;20488;-40
2023/09/20 00:32:30;;;;;;;6.53;4.43;;;;;;;22.48;51.60;99750.84;4840903;29;20121;-40
2023/09/20 00:34:56;;;;;;;5.57;4.28;;;;;;;21.84;52.82;99737.09;4840954;29;20531;-40
2023/09/20 00:37:21;;;;;;;6.95;4.97;;;;;;;21.78;53.64;99734.69;4840853;29;20034;-41
2023/09/20 00:39:47;;;;;;;8.43;4.90;;;;;;;21.62;53.90;99734.75;4841270;29;20048;-39
2023/09/20 00:42:12;;;;;;;6.18;4.55;;;;;;;21.53;54.36;99741.81;4840856;29;20506;-41
2023/09/20 00:44:38;;;;;;;6.35;4.90;;;;;;;21.70;53.98;99736.06;4841020;29;20444;-40
2023/09/20 00:47:04;;;;;;;6.90;4.82;;;;;;;21.97;53.05;99738.41;4841029;29;20033;-40
2023/09/20 00:49:34;;;;;;;7.60;4.70;;;;;;;22.13;52.81;99744.53;4840786;29;20026;-40
2023/09/20 00:52:00;;;;;;;;;;;;;;;22.55;51.95;99754.03;4841424;29;20112;-41
2023/09/20 00:54:26;;;;;;;7.65;4.60;;;;;;;22.11;52.32;99754.84;4840922;29;20004;-42
2023/09/20 00:56:51;;;;;;;7.10;4.50;;;;;;;21.87;52.58;99743.84;4841008;29;20548;-41
2023/09/20 00:59:17;;;;;;;8.52;5.20;;;;;;;22.02;52.41;99745.69;4840738;29;20080;-42
2023/09/20 01:01:43;;;;;;;7.70;4.95;;;;;;;21.80;52.97;99740.63;4840874;29;20037;-41
2023/09/20 01:04:09;;;;;;;7.43;4.90;;;;;;;21.81;52.78;99740.34;4840469;29;20037;-41
2023/09/20 01:06:36;;;;;;;6.28;4.70;;;;;;;21.61;53.46;99729.59;4840332;29;20053;-41
2023/09/20 01:09:03;;;;;;;7.05;5.10;;;;;;;21.27;53.98;99746.50;4840857;29;20042;-40
2023/09/20 01:11:29;;;;;;;6.18;4.57;;;;;;;21.54;54.02;99743.47;4840203;29;20380;-41
2023/09/20 01:13:55;;;;;;;5.95;4.72;;;;;;;21.70;53.69;99751.53;4840517;29;20490;-42
2023/09/20 01:16:21;;;;;;;7.03;4.75;;;;;;;21.71;53.00;99745.03;4840677;29;20467;-41
2023/09/20 01:18:47;;;;;;;7.93;5.07;;;;;;;21.98;51.97;99733.78;4840667;29;20099;-42
2023/09/20 01:21:13;;;;;;;8.15;4.78;;;;;;;21.73;52.33;99732.03;4839465;29;20048;-40
2023/09/20 01:23:42;;;;;;;8.30;4.97;;;;;;;21.58;53.03;99730.19;4840500;29;20435;-39
2023/09/20 01:26:08;;;;;;;9.23;4.85;;;;;;;21.41;53.34;99719.66;4840410;29;20040;-40
2023/09/20 01:28:35;;;;;;;6.28;4.90;;;;;;;21.48;53.21;99731.03;4847193;29;20402;-40
2023/09/20 01:31:04;;;;;;;6.80;4.68;;;;;;;21.65;52.51;99726.09;4859066;29;20120;-40
2023/09/20 01:33:31;;;;;;;5.80;4.50;;;;;;;21.59;52.98;99727.19;4858696;29;20030;-40
2023/09/20 01:35:56;;;;;;;6.82;4.40;;;;;;;21.61;53.02;99735.84;4858722;29;20044;-40
2023/09/20 01:38:21;;;;;;;6.85;4.57;;;;;;;21.70;52.73;99729.84;4858454;29;20022;-42
2023/09/20 01:40:47;;;;;;;7.60;4.45;;;;;;;21.81;52.29;99728.72;4858844;29;20089;-42
2023/09/20 01:43:13;;;;;;;7.35;4.68;;;;;;;22.03;51.35;99748.13;4858751;29;20132;-40
2023/09/20 01:45:42;;;;;;;6.15;4.70;;;;;;;21.67;52.33;99742.06;4858035;29;20029;-40
2023/09/20 01:48:10;;;;;;;11.00;5.03;;;;;;;21.49;52.31;99738.06;4858101;29;20135;-40
2023/09/20 01:50:37;;;;;;;9.60;4.88;;;;;;;21.34;53.16;99752.41;4858194;29;20049;-38
2023/09/20 01:53:08;;;;;;;7.15;5.05;;;;;;;21.04;53.67;99745.97;4858258;29;20025;-40
2023/09/20 01:55:36;;;;;;;6.65;5.00;;;;;;;21.22;53.42;99754.59;4858049;29;20104;-40
2023/09/20 01:58:05;;;;;;;8.30;5.38;;;;;;;21.45;52.52;99751.31;4857079;29;20383;-39
2023/09/20 02:00:32;;;;;;;7.15;5.00;;;;;;;21.29;53.19;99752.44;4857998;29;20058;-40
2023/09/20 02:03:07;;;;;;;7.25;5.07;;;;;;;21.69;52.24;99748.00;4858114;29;20130;-40
2023/09/20 02:05:34;;;;;;;8.20;4.80;;;;;;;21.66;52.22;99749.34;4856797;29;20040;-40
2023/09/20 02:08:00;;;;;;;6.63;5.00;;;;;;;21.59;52.90;99748.03;4857642;29;20683;-41
2023/09/20 02:10:25;;;;;;;9.57;5.30;;;;;;;21.48;52.97;99750.78;4858159;29;20033;-40
2023/09/20 02:12:53;;;;;;;6.50;4.90;;;;;;;21.65;52.74;99747.75;4858206;29;20029;-40
2023/09/20 02:15:19;;;;;;;8.60;5.13;;;;;;;21.90;52.17;99748.72;4858399;29;20025;-39
2023/09/20 02:17:45;;;;;;;8.60;4.97;;;;;;;21.94;52.22;99759.81;4858239;29;20582;-40
2023/09/20 02:20:19;;;;;;;6.07;4.45;;;;;;;21.93;52.28;99763.59;4856852;29;20336;-41
2023/09/20 02:22:46;;;;;;;8.48;4.82;;;;;;;22.03;52.44;99766.28;4858056;29;20033;-41
2023/09/20 02:25:12;;;;;;;7.78;4.60;;;;;;;22.08;52.50;99774.38;4857543;29;20585;-40
2023/09/20 02:27:42;;;;;;;7.15;4.65;;;;;;;22.12;52.77;99771.91;4858110;29;20089;-41
2023/09/20 02:30:16;;;;;;;6.82;4.32;;;;;;;22.14;52.10;99770.56;4858201;29;20037;-42
2023/09/20 02:32:50;;;;;;;10.15;4.70;;;;;;;22.14;51.98;99767.00;4860156;29;20387;-42
2023/09/20 02:35:16;;;;;;;9.63;4.80;;;;;;;22.20;52.26;99772.16;4861380;29;20321;-40
2023/09/20 02:37:41;;;;;;;5.97;4.75;;;;;;;22.23;51.78;99779.69;4861475;29;20055;-40
2023/09/20 02:40:07;;;;;;;9.80;5.20;;;;;;;22.15;51.90;99764.03;4861593;29;20085;-41
2023/09/20 02:42:43;;;;;;;6.68;4.90;;;;;;;21.91;52.33;99776.63;4861245;29;20120;-43
2023/09/20 02:45:08;;;;;;;8.65;5.18;;;;;;;21.70;52.64;99774.00;4861552;29;20025;-40
2023/09/20 02:47:34;;;;;;;9.80;5.07;;;;;;;21.82;52.43;99774.50;4861497;29;20108;-42
2023/09/20 02:50:00;;;;;;;10.10;5.40;;;;;;;21.86;52.30;99772.84;4861037;29;20026;-40
2023/09/20 02:52:26;;;;;;;7.53;4.93;;;;;;;21.89;52.34;99770.66;4861190;29;20049;-43
2023/09/20 02:54:51;;;;;;;7.30;4.97;;;;;;;21.66;52.62;99759.38;4858289;29;20076;-44
2023/09/20 02:57:17;;;;;;;7.20;4.95;;;;;;;21.64;52.32;99764.25;4842626;29;20022;-44
2023/09/20 02:59:42;;;;;;;7.15;5.53;;;;;;;21.40;52.98;99770.28;4842711;29;20057;-42
2023/09/20 03:02:10;;;;;;;8.95;5.30;;;;;;;21.22;53.44;99771.66;4850773;29;20044;-41
2023/09/20 03:04:37;;;;;;;7.78;5.25;;;;;;;21.18;53.95;99765.16;4859816;29;20025;-44
2023/09/20 03:07:03;;;;;;;10.82;5.28;;;;;;;21.28;53.91;99773.28;4860592;29;20355;-47
2023/09/20 03:09:35;;;;;;;8.55;5.35;;;;;;;21.41;53.53;99768.38;4860396;29;20104;-44
2023/09/20 03:12:02;;;;;;;11.48;5.93;;;;;;;21.56;53.05;99770.25;4860345;29;20533;-42
2023/09/20 03:14:29;;;;;;;8.02;5.63;;;;;;;21.60;52.97;99774.03;4860564;29;20026;-45
2023/09/20 03:16:55;;;;;;;7.65;5.28;;;;;;;21.51;53.88;99776.47;4860980;29;20025;-45
2023/09/20 03:19:22;;;;;;;13.40;7.40;;;;;;;21.46;53.54;99761.06;4860848;29;20069;-46
2023/09/20 03:21:47;;;;;;;9.32;5.72;;;;;;;21.42;53.38;99776.22;4860690;29;20040;-45
2023/09/20 03:24:13;;;;;;;12.05;7.45;;;;;;;21.37;53.74;99772.72;4860726;29;20026;-46
2023/09/20 03:26:39;;;;;;;9.63;6.00;;;;;;;21.15;54.49;99779.25;4860806;29;20086;-47
2023/09/20 03:29:04;;;;;;;7.95;5.78;;;;;;;21.01;54.71;99768.16;4858983;29;20037;-45
2023/09/20 03:31:33;;;;;;;10.88;6.22;;;;;;;20.76;55.60;99782.50;4852088;29;20033;-40
2023/09/20 03:33:59;;;;;;;9.05;5.68;;;;;;;20.88;55.68;99785.75;4857144;29;20034;-46
2023/09/20 03:36:25;;;;;;;11.35;6.20;;;;;;;20.98;55.42;99784.13;4858622;29;20415;-44
2023/09/20 03:38:51;;;;;;;8.65;5.40;;;;;;;21.03;55.63;99779.50;4859554;29;20475;-41
2023/09/20 03:41:17;;;;;;;7.55;5.82;;;;;;;21.21;54.74;99780.88;4859986;29;20044;-43
2023/09/20 03:43:44;;;;;;;10.27;6.10;;;;;;;21.21;54.75;99783.56;4852660;29;20087;-44
2023/09/20 03:46:10;;;;;;;8.55;6.32;;;;;;;21.23;54.53;99777.91;4841747;29;20104;-42
2023/09/20 03:48:35;;;;;;;36.28;22.60;;;;;;;21.36;54.26;99788.16;4841518;29;20022;-43
2023/09/20 03:51:01;;;;;;;31.17;21.73;;;;;;;21.04;54.56;99783.84;4841677;29;20029;-42
2023/09/20 03:53:26;;;;;;;57.30;30.30;;;;;;;20.89;55.15;99789.28;4859858;29;20053;-41
2023/09/20 03:55:52;;;;;;;10.70;6.93;;;;;;;20.95;54.87;99785.47;4859745;29;20523;-45
2023/09/20 03:58:18;;;;;;;10.73;5.93;;;;;;;20.96;54.83;99776.28;4859978;29;20025;-44
2023/09/20 04:00:45;;;;;;;11.10;5.78;;;;;;;20.90;55.91;99785.47;4859511;29;20077;-42
2023/09/20 04:03:12;;;;;;;12.80;6.20;;;;;;;21.02;55.16;99791.44;4860131;29;20033;-43
2023/09/20 04:05:38;;;;;;;12.05;6.47;;;;;;;21.02;55.23;99780.63;4860146;29;20063;-45
2023/09/20 04:08:06;;;;;;;8.43;5.80;;;;;;;20.78;55.82;99784.94;4860184;29;20026;-44
2023/09/20 04:10:31;;;;;;;11.02;6.07;;;;;;;20.89;56.75;99800.09;4859548;29;20037;-42
2023/09/20 04:12:57;;;;;;;8.75;6.05;;;;;;;20.96;55.66;99797.94;4857350;29;20041;-46
2023/09/20 04:15:24;;;;;;;7.38;5.70;;;;;;;20.99;55.94;99802.78;4859504;29;20029;-42
2023/09/20 04:17:51;;;;;;;11.40;6.53;;;;;;;21.01;55.75;99803.31;4859705;29;20085;-41
2023/09/20 04:20:20;;;;;;;10.73;6.35;;;;;;;21.11;55.27;99804.41;4859568;29;20025;-42
2023/09/20 04:22:46;;;;;;;;;;;;;;;21.47;55.13;99805.19;4859587;29;20420;-45
2023/09/20 04:25:11;;;;;;;11.77;5.82;;;;;;;21.26;55.26;99804.38;4859617;29;19922;-48
2023/09/20 04:27:37;;;;;;;16.13;7.38;;;;;;;21.12;55.30;99809.56;4859324;29;20040;-45
2023/09/20 04:30:03;;;;;;;12.88;6.55;;;;;;;21.21;56.85;99807.94;4859139;29;20053;-44
2023/09/20 04:32:29;;;;;;;10.80;6.50;;;;;;;21.34;55.81;99811.94;4859481;29;20026;-43
2023/09/20 04:34:56;;;;;;;14.93;6.55;;;;;;;21.37;55.30;99807.91;4858982;29;20052;-44
2023/09/20 04:37:25;;;;;;;10.52;6.13;;;;;;;21.45;54.82;99808.16;4858896;29;20039;-43
2023/09/20 04:39:51;;;;;;;;;;;;;;;21.64;54.61;99810.28;4859728;29;20096;-44
2023/09/20 04:42:16;;;;;;;15.98;7.00;;;;;;;21.55;55.10;99807.34;4856595;29;19919;-43
2023/09/20 04:44:42;;;;;;;23.20;12.48;;;;;;;21.50;54.80;99810.06;4857011;29;20039;-41
2023/09/20 04:47:09;;;;;;;20.88;12.05;;;;;;;21.46;54.76;99812.50;4870289;29;20478;-45
2023/09/20 04:49:34;;;;;;;14.23;8.00;;;;;;;21.50;54.78;99804.66;4855127;29;20017;-44
2023/09/20 04:52:00;;;;;;;17.13;9.18;;;;;;;21.66;54.35;99808.94;4855896;29;20081;-44
2023/09/20 04:54:27;;;;;;;14.98;7.88;;;;;;;22.02;53.43;99805.28;4856256;29;20040;-44
2023/09/20 04:56:53;;;;;;;13.05;7.00;;;;;;;22.07;53.22;99805.28;4857276;29;20504;-45
2023/09/20 04:59:19;;;;;;;12.18;6.50;;;;;;;22.28;52.79;99807.91;4858558;29;20065;-44
2023/09/20 05:01:44;;;;;;;11.63;6.68;;;;;;;22.29;52.78;99818.44;4858457;29;20064;-46
2023/09/20 05:04:13;;;;;;;11.75;7.00;;;;;;;22.54;52.06;99820.22;4850112;29;20041;-41
2023/09/20 05:06:41;;;;;;;10.77;6.57;;;;;;;22.82;51.45;99812.41;4840149;29;20053;-44
2023/09/20 05:09:07;;;;;;;12.03;6.93;;;;;;;23.06;51.25;99825.31;4839702;29;20815;-43
2023/09/20 05:11:32;;;;;;;13.70;7.82;;;;;;;23.26;50.92;99827.00;4841624;29;20053;-42
2023/09/20 05:13:58;;;;;;;15.02;7.32;;;;;;;23.74;49.32;99830.59;4843455;29;20029;-45
2023/09/20 05:16:23;;;;;;;13.90;7.00;;;;;;;24.01;48.56;99823.81;4845484;29;20466;-42
2023/09/20 05:18:50;;;;;;;10.27;6.68;;;;;;;24.40;47.55;99830.88;4848621;29;20028;-44
2023/09/20 05:21:16;;;;;;;12.98;7.00;;;;;;;24.66;46.47;99827.84;4846925;29;20032;-42
2023/09/20 05:23:42;;;;;;;11.55;6.47;;;;;;;25.06;45.50;99829.09;4858234;29;20021;-44
2023/09/20 05:26:07;;;;;;;10.75;7.18;;;;;;;25.42;44.53;99833.97;4847852;29;20033;-41
2023/09/20 05:28:33;;;;;;;13.25;7.00;;;;;;;25.61;44.42;99833.03;4847065;29;20021;-44
2023/09/20 05:30:58;;;;;;;12.80;6.82;;;;;;;25.90;43.94;99838.22;4854846;29;20045;-43
2023/09/20 05:33:24;;;;;;;9.35;6.15;;;;;;;26.22;43.18;99840.03;4841954;29;20030;-43
2023/09/20 05:35:49;;;;;;;11.15;6.00;;;;;;;26.35;43.01;99841.13;4839888;29;20057;-44
2023/09/20 05:38:17;;;;;;;14.13;7.05;;;;;;;26.63;42.61;99843.81;4839855;29;20450;-45
2023/09/20 05:40:43;;;;;;;11.80;6.22;;;;;;;26.89;41.70;99844.00;4839734;29;20405;-41
2023/09/20 05:43:08;;;;;;;12.38;6.00;;;;;;;26.94;41.39;99840.34;4839851;29;20125;-42
2023/09/20 05:45:35;;;;;;;12.00;6.30;;;;;;;27.48;40.73;99849.38;4839918;29;20116;-46
2023/09/20 05:48:01;;;;;;;13.13;6.70;;;;;;;27.62;40.26;99850.06;4838537;29;20026;-42
2023/09/20 05:50:33;;;;;;;13.85;6.30;;;;;;;28.08;39.60;99850.75;4839434;29;20030;-44
2023/09/20 05:53:06;;;;;;;12.77;7.28;;;;;;;28.51;38.61;99849.22;4839704;29;20109;-44
2023/09/20 05:55:35;;;;;;;16.48;7.72;;;;;;;28.96;37.82;99852.47;4839634;29;20030;-44
2023/09/20 05:58:00;;;;;;;;;;;;;;;29.56;37.12;99852.66;4839977;29;20507;-44
2023/09/20 06:00:26;;;;;;;17.50;8.18;;;;;;;29.78;36.28;99851.66;4839900;29;20011;-42
2023/09/20 06:02:51;;;;;;;14.48;7.65;;;;;;;30.11;35.81;99854.53;4839621;29;20540;-43
2023/09/20 06:05:18;;;;;;;15.00;8.70;;;;;;;30.12;35.16;99858.06;4839909;29;20057;-44
2023/09/20 06:07:44;;;;;;;15.05;8.20;;;;;;;30.17;35.34;99861.41;4841741;29;20030;-43
2023/09/20 06:10:12;;;;;;;18.15;8.38;;;;;;;30.59;34.70;99861.47;4843514;29;20387;-43
2023/09/20 06:12:38;;;;;;;12.52;8.13;;;;;;;30.77;34.10;99862.16;4843357;29;20114;-43
2023/09/20 06:15:07;;;;;;;21.58;8.75;;;;;;;30.50;34.68;99858.00;4843350;29;20104;-43
2023/09/20 06:17:32;;;;;;;13.73;8.35;;;;;;;30.99;33.73;99865.69;4843055;29;20104;-45
2023/09/20 06:19:59;;;;;;;14.02;7.53;;;;;;;31.41;33.22;99859.28;4843010;29;20132;-46
2023/09/20 06:22:30;;;;;;;12.50;7.90;;;;;;;31.85;32.86;99865.09;4842986;29;20030;-44
2023/09/20 06:24:58;;;;;;;12.02;7.30;;;;;;;32.08;32.14;99863.50;4843230;29;20460;-41
2023/09/20 06:27:24;;;;;;;9.88;6.57;;;;;;;32.28;32.11;99870.00;4843121;29;20030;-42
2023/09/20 06:29:49;;;;;;;10.32;6.30;;;;;;;32.51;31.67;99870.31;4843395;29;20112;-43
2023/09/20 06:32:15;;;;;;;10.25;6.80;;;;;;;32.76;31.19;99864.75;4843072;29;20553;-46
2023/09/20 06:34:41;;;;;;;9.35;5.75;;;;;;;32.78;31.09;99873.47;4842955;29;20033;-43
2023/09/20 06:37:09;;;;;;;7.60;5.85;;;;;;;33.04;31.32;99869.47;4842876;29;20105;-44
2023/09/20 06:39:35;;;;;;;9.18;5.40;;;;;;;32.87;30.91;99868.59;4841331;29;20030;-46
2023/09/20 06:42:01;;;;;;;9.82;5.10;;;;;;;33.21;30.33;99871.13;4856863;29;20040;-44
2023/09/20 06:44:27;;;;;;;9.55;4.72;;;;;;;33.54;30.07;99864.50;4843015;29;20030;-45
2023/09/20 06:46:53;;;;;;;10.35;5.43;;;;;;;33.55;30.28;99874.34;4842509;29;20459;-43
2023/09/20 06:49:18;;;;;;;6.90;4.85;;;;;;;33.81;29.75;99873.84;4842587;29;20026;-42
2023/09/20 06:51:43;;;;;;;8.88;4.68;;;;;;;33.84;29.79;99868.41;4842409;29;20105;-44
2023/09/20 06:54:09;;;;;;;9.98;4.70;;;;;;;34.02;29.25;99868.03;4842553;29;20038;-43
2023/09/20 06:56:37;;;;;;;8.52;5.00;;;;;;;34.31;28.86;99868.69;4842942;29;20022;-43
2023/09/20 06:59:03;;;;;;;6.20;4.32;;;;;;;33.72;29.28;99870.47;4842125;29;20483;-43
2023/09/20 07:01:29;;;;;;;4.85;3.85;;;;;;;33.98;29.41;99876.22;4841799;29;20106;-48
2023/09/20 07:03:54;;;;;;;6.85;4.32;;;;;;;34.22;29.25;99877.22;4841902;29;20030;-44
2023/09/20 07:06:19;;;;;;;5.18;3.90;;;;;;;33.98;29.69;99884.50;4842251;29;20026;-46
2023/09/20 07:08:45;;;;;;;4.97;4.15;;;;;;;34.18;29.24;99879.88;4842071;29;20041;-42
2023/09/20 07:11:13;;;;;;;7.50;4.43;;;;;;;34.51;28.72;99881.38;4842204;29;20097;-42
2023/09/20 07:13:38;;;;;;;6.50;4.32;;;;;;;34.24;29.17;99881.19;4842248;29;20491;-51
2023/09/20 07:16:08;;;;;;;5.32;4.30;;;;;;;34.26;28.76;99883.59;4842233;29;20097;-43
2023/09/20 07:18:35;;;;;;;6.55;4.18;;;;;;;34.28;29.40;99882.06;4840872;29;20025;-42
2023/09/20 07:21:02;;;;;;;6.18;3.95;;;;;;;34.39;29.24;99879.56;4842036;29;20625;-43
2023/09/20 07:23:29;;;;;;;6.47;4.30;;;;;;;34.12;29.26;99886.81;4841484;29;20025;-44
2023/09/20 07:25:55;;;;;;;5.65;3.90;;;;;;;34.64;29.29;99884.81;4841400;29;20109;-42
2023/09/20 07:28:23;;;;;;;9.23;4.22;;;;;;;35.26;28.34;99876.59;4841034;29;20125;-42
2023/09/20 07:30:48;;;;;;;5.53;4.23;;;;;;;35.66;27.41;99888.34;4841327;29;20030;-45
2023/09/20 07:33:19;;;;;;;9.88;4.68;;;;;;;35.26;28.42;99884.09;4841198;29;20270;-43
2023/09/20 07:35:47;;;;;;;9.73;4.50;;;;;;;35.20;28.31;99887.16;4841358;29;20037;-42
2023/09/20 07:38:24;;;;;;;;;;;;;;;35.76;27.71;99887.78;4841387;29;20515;-45
2023/09/20 07:40:50;;;;;;;6.90;4.28;;;;;;;35.43;28.06;99881.66;4841407;29;19913;-44
2023/09/20 07:43:17;;;;;;;9.65;3.90;;;;;;;35.23;28.25;99882.88;4840889;29;20033;-42
2023/09/20 07:45:43;;;;;;;5.32;4.03;;;;;;;35.70;27.35;99876.22;4841039;29;20032;-45
2023/09/20 07:48:16;;;;;;;8.05;4.30;;;;;;;35.80;27.60;99883.09;4840630;29;20025;-43
2023/09/20 07:50:43;;;;;;;4.90;4.03;;;;;;;35.28;28.74;99890.88;4840830;29;20061;-44
2023/09/20 07:53:15;;;;;;;6.03;3.92;;;;;;;35.09;28.22;99886.16;4841208;29;20208;-44
2023/09/20 07:55:55;;;;;;;4.20;3.70;;;;;;;35.22;28.51;99881.25;4840949;29;20029;-43
2023/09/20 07:58:21;;;;;;;7.43;3.90;;;;;;;35.66;28.08;99880.03;4841306;29;20140;-42
2023/09/20 08:00:51;;;;;;;6.22;4.00;;;;;;;35.11;28.79;99889.34;4841152;29;20054;-44
2023/09/20 08:03:18;;;;;;;6.03;3.85;;;;;;;35.63;28.09;99887.91;4841248;29;20025;-43
2023/09/20 08:05:43;;;;;;;5.95;3.80;;;;;;;34.81;28.90;99887.19;4840805;29;20502;-42
2023/09/20 08:08:10;;;;;;;6.43;4.00;;;;;;;35.25;28.25;99872.25;4840688;29;20026;-42
2023/09/20 08:10:37;;;;;;;6.25;3.90;;;;;;;35.46;28.18;99876.56;4841182;29;20511;-45
2023/09/20 08:13:04;;;;;;;5.30;3.97;;;;;;;35.40;28.09;99873.31;4841140;29;20187;-43
2023/09/20 08:15:32;;;;;;;6.97;4.00;;;;;;;35.97;27.92;99867.94;4840572;29;20026;-47
2023/09/20 08:20:42;;;;;;;5.43;4.05;;;;;;;36.28;27.31;99863.25;4841261;29;20036;-42
2023/09/20 09:01:37;;;;;;;6.57;3.80;;;;;;;36.27;26.90;99804.28;4840266;29;20061;-43
2023/09/20 09:04:06;;;;;;;7.80;4.07;;;;;;;36.07;26.36;99808.34;4840127;29;20061;-45
2023/09/20 09:06:31;;;;;;;8.05;3.70;;;;;;;36.31;26.54;99818.16;4840032;29;20033;-44
2023/09/20 09:08:57;;;;;;;7.13;4.00;;;;;;;36.48;26.16;99809.31;4840071;29;20560;-44
2023/09/20 09:11:24;;;;;;;7.57;4.18;;;;;;;36.31;26.28;99798.78;4840110;29;20048;-44
2023/09/20 09:13:50;;;;;;;6.13;3.80;;;;;;;36.34;26.77;99803.56;4838867;29;20106;-44
2023/09/20 09:16:19;;;;;;;5.20;3.45;;;;;;;36.50;26.22;99801.41;4840518;29;20089;-45
2023/09/20 09:18:44;;;;;;;4.25;3.63;;;;;;;36.48;25.56;99800.16;4840367;29;20094;-43
2023/09/20 09:21:12;;;;;;;5.15;3.47;;;;;;;36.84;25.61;99801.38;4840149;29;20042;-42
2023/09/20 09:23:44;;;;;;;6.53;3.90;;;;;;;36.80;25.16;99786.69;4840208;29;20041;-43
2023/09/20 09:26:10;;;;;;;6.45;3.90;;;;;;;36.93;25.73;99793.56;4840732;29;20116;-43
2023/09/20 09:28:38;;;;;;;4.82;3.67;;;;;;;37.38;24.66;99785.28;4839896;29;20036;-44
2023/09/20 09:31:04;;;;;;;10.23;4.07;;;;;;;36.53;25.40;99786.78;4840151;29;20038;-46
2023/09/20 09:33:30;;;;;;;7.43;3.80;;;;;;;35.24;26.65;99777.44;4840204;29;20271;-43
2023/09/20 09:35:56;;;;;;;4.50;4.00;;;;;;;34.52;28.42;99788.25;4840391;29;20476;-43
2023/09/20 09:38:22;;;;;;;7.60;4.00;;;;;;;35.38;27.27;99778.81;4840162;29;20026;-42
2023/09/20 09:40:51;;;;;;;5.82;3.72;;;;;;;36.33;26.67;99782.59;4839995;29;20082;-43
2023/09/20 09:43:17;;;;;;;6.95;4.20;;;;;;;37.03;25.44;99778.19;4843192;29;20057;-45
2023/09/20 09:45:46;;;;;;;6.47;3.90;;;;;;;37.68;25.24;99782.38;4844000;29;20521;-43
2023/09/20 09:48:14;;;;;;;;;;;;;;;38.50;23.89;99778.41;4844335;29;20467;-41
2023/09/20 09:50:41;;;;;;;8.05;3.40;;;;;;;38.95;23.10;99773.34;4844018;29;19912;-43
2023/09/20 09:53:08;;;;;;;5.90;3.58;;;;;;;38.69;23.05;99771.72;4844037;29;20030;-50
2023/09/20 09:55:34;;;;;;;6.05;3.20;;;;;;;38.33;22.99;99766.84;4843664;29;20033;-44
2023/09/20 09:58:04;;;;;;;5.13;3.70;;;;;;;38.25;23.05;99776.34;4843986;29;20170;-47
2023/09/20 10:00:32;;;;;;;4.78;3.53;;;;;;;38.46;22.55;99772.03;4843565;29;20077;-45
2023/09/20 10:03:11;;;;;;;4.70;3.50;;;;;;;37.63;23.22;99759.72;4843778;29;20029;-46
2023/09/20 10:05:38;;;;;;;6.97;3.65;;;;;;;38.26;22.71;99763.25;4843462;29;20029;-43
2023/09/20 10:08:05;;;;;;;4.97;3.65;;;;;;;38.16;23.19;99766.75;4843206;29;20529;-43
2023/09/20 10:10:30;;;;;;;6.80;3.80;;;;;;;38.34;22.66;99764.84;4843642;29;20105;-43
2023/09/20 10:12:56;;;;;;;4.78;3.58;;;;;;;38.38;22.94;99753.75;4843422;29;20098;-43
2023/09/20 10:15:22;;;;;;;5.35;3.58;;;;;;;38.26;22.66;99758.47;4843324;29;20122;-44
2023/09/20 10:17:55;;;;;;;4.80;3.60;;;;;;;38.59;22.46;99759.38;4843626;29;20398;-44
2023/09/20 10:20:22;;;;;;;4.78;3.67;;;;;;;38.88;22.65;99746.34;4843165;29;20033;-42
2023/09/20 10:22:49;;;;;;;5.88;4.10;;;;;;;37.83;22.86;99747.13;4843269;29;20438;-45
2023/09/20 10:25:36;;;;;;;5.63;3.70;;;;;;;38.50;22.85;99739.50;4843376;29;20038;-43
2023/09/20 10:28:04;;;;;;;6.93;3.83;;;;;;;38.94;22.29;99737.59;4843266;29;20030;-44
2023/09/20 10:30:34;;;;;;;6.50;3.40;;;;;;;37.85;23.32;99730.09;4843097;29;20042;-43
2023/09/20 10:33:03;;;;;;;7.63;3.60;;;;;;;37.46;23.65;99712.00;4842883;29;20046;-43
2023/09/20 10:35:30;;;;;;;3.90;3.50;;;;;;;36.57;24.40;99717.53;4843107;29;20034;-44
2023/09/20 10:37:56;;;;;;;9.40;4.13;;;;;;;36.14;24.58;99708.75;4842853;29;20021;-44
2023/09/20 10:40:21;;;;;;;5.75;3.90;;;;;;;36.72;24.41;99711.00;4842413;29;20056;-44
2023/09/20 10:42:56;;;;;;;7.45;3.50;;;;;;;36.62;23.70;99713.66;4842347;29;20037;-42
2023/09/20 10:45:21;;;;;;;5.63;3.75;;;;;;;35.78;24.24;99716.59;4842628;29;20117;-44
2023/09/20 10:47:52;;;;;;;4.53;3.72;;;;;;;34.75;25.72;99702.69;4842695;29;20150;-42
2023/09/20 10:50:47;;;;;;;5.28;3.80;;;;;;;34.89;25.40;99708.47;4842543;29;20045;-43
2023/09/20 10:53:13;;;;;;;6.40;3.50;;;;;;;34.78;25.36;99710.25;4842378;29;20030;-42
2023/09/20 10:55:38;;;;;;;5.70;3.40;;;;;;;35.23;25.09;99708.66;4842632;29;20029;-48
2023/09/20 10:58:04;;;;;;;4.88;3.47;;;;;;;35.96;25.22;99714.06;4842327;29;20089;-43
2023/09/20 11:00:34;;;;;;;4.57;3.20;;;;;;;36.27;24.78;99703.78;4841994;29;20452;-45
2023/09/20 11:03:07;;;;;;;5.43;3.70;;;;;;;36.75;23.92;99715.78;4842188;29;20022;-43
2023/09/20 11:05:34;;;;;;;7.00;3.60;;;;;;;36.95;23.79;99705.25;4842206;29;20041;-42
2023/09/20 11:08:06;;;;;;;5.32;3.50;;;;;;;36.23;24.95;99702.94;4842098;29;20483;-42
2023/09/20 11:10:32;;;;;;;6.45;3.50;;;;;;;36.16;25.18;99700.88;4842270;29;20041;-41
2023/09/20 11:12:58;;;;;;;4.97;3.50;;;;;;;36.60;24.95;99689.09;4842393;29;20030;-51
2023/09/20 11:15:24;;;;;;;3.92;3.42;;;;;;;37.16;24.62;99687.22;4842487;29;20166;-42
2023/09/20 11:17:49;;;;;;;5.13;3.38;;;;;;;37.88;23.55;99694.00;4842191;29;20033;-45
2023/09/20 11:20:14;;;;;;;4.25;3.38;;;;;;;36.81;23.72;99679.41;4842684;29;20033;-45
2023/09/20 11:22:41;;;;;;;4.13;3.20;;;;;;;36.52;24.27;99662.47;4856328;29;20048;-45
2023/09/20 11:25:07;;;;;;;3.78;3.47;;;;;;;36.47;24.38;99676.69;4841928;29;20384;-43
2023/09/20 11:27:36;;;;;;;4.30;3.15;;;;;;;35.42;25.43;99672.59;4841863;29;20053;-44
2023/09/20 11:30:08;;;;;;;3.78;3.13;;;;;;;35.71;24.83;99670.25;4842429;29;20018;-43
2023/09/20 11:32:33;;;;;;;5.03;3.05;;;;;;;36.33;24.20;99663.50;4842812;29;20114;-45
2023/09/20 11:34:58;;;;;;;3.50;3.20;;;;;;;36.67;23.86;99668.97;4849220;29;20034;-44
2023/09/20 11:37:24;;;;;;;5.25;2.97;;;;;;;36.25;24.16;99667.34;4841132;29;20037;-42
2023/09/20 11:39:52;;;;;;;4.05;2.95;;;;;;;36.07;23.94;99667.91;4841583;29;20099;-45
2023/09/20 11:42:26;;;;;;;3.17;2.65;;;;;;;36.56;23.59;99666.09;4846682;29;20089;-47
2023/09/20 11:45:05;;;;;;;3.70;2.67;;;;;;;37.05;23.15;99656.63;4849006;29;20029;-45
2023/09/20 11:47:33;;;;;;;4.13;2.90;;;;;;;36.84;23.42;99653.69;4848216;29;20364;-44
2023/09/20 11:49:59;;;;;;;;;;;;;;;36.86;23.54;99657.69;4858426;29;20052;-44
2023/09/20 11:52:25;;;;;;;3.85;2.85;;;;;;;36.55;23.56;99656.97;4849740;29;19991;-42
2023/09/20 11:54:55;;;;;;;4.03;3.08;;;;;;;36.66;23.81;99646.00;4851543;29;20414;-45
2023/09/20 11:57:23;;;;;;;5.32;3.00;;;;;;;36.04;24.65;99654.81;4851738;29;20040;-43
2023/09/20 11:59:49;;;;;;;5.15;2.92;;;;;;;35.19;26.07;99652.50;4850301;29;20129;-43
2023/09/20 12:02:14;;;;;;;6.55;3.28;;;;;;;35.20;25.68;99637.50;4851035;29;20104;-45
2023/09/20 12:04:39;;;;;;;7.00;3.08;;;;;;;34.38;26.36;99632.16;4851296;29;20626;-49
2023/09/20 12:07:08;;;;;;;3.83;2.83;;;;;;;34.60;26.09;99633.34;4854700;29;20553;-42
2023/09/20 12:09:34;;;;;;;;;;;;;;;35.70;25.40;99640.19;4854043;29;20121;-42
2023/09/20 12:11:59;;;;;;;3.80;2.63;;;;;;;36.02;24.13;99626.72;4852851;29;20290;-42
2023/09/20 12:14:24;;;;;;;4.57;2.80;;;;;;;35.39;24.14;99626.31;4850041;29;20022;-39